createdAt,value
2023-03-06T00:00:38.439Z,99250.41
2023-03-06T00:01:25.277Z,99246.19
2023-03-06T00:02:12.280Z,99248.97
2023-03-06T00:02:59.331Z,99247.97
2023-03-06T00:03:46.364Z,99254.44
2023-03-06T00:04:33.314Z,99245.63
2023-03-06T00:05:20.363Z,99252.72
2023-03-06T00:06:07.717Z,99253.00
2023-03-06T00:06:54.992Z,99257.28
2023-03-06T00:07:42.612Z,99253.19
2023-03-06T00:08:29.965Z,99254.63
2023-03-06T00:09:16.940Z,99249.41
2023-03-06T00:10:04.346Z,99249.59
2023-03-06T00:10:52.379Z,99256.22
2023-03-06T00:11:39.332Z,99257.81
2023-03-06T00:12:27.921Z,99253.37
2023-03-06T00:13:16.645Z,99257.81
2023-03-06T00:14:03.701Z,99253.47
2023-03-06T00:14:50.668Z,99250.88
2023-03-06T00:15:37.679Z,99258.78
2023-03-06T00:16:25.175Z,99254.37
2023-03-06T00:17:12.272Z,99257.88
2023-03-06T00:17:59.841Z,99252.91
2023-03-06T00:18:48.030Z,99251.31
2023-03-06T00:19:35.120Z,99251.69
2023-03-06T00:20:23.165Z,99251.34
2023-03-06T00:21:10.271Z,99247.25
2023-03-06T00:21:57.572Z,99249.13
2023-03-06T00:22:45.849Z,99244.72
2023-03-06T00:23:32.945Z,99251.41
2023-03-06T00:24:20.127Z,99243.66
2023-03-06T00:25:08.580Z,99245.50
2023-03-06T00:25:55.620Z,99243.62
2023-03-06T00:26:43.461Z,99250.28
2023-03-06T00:27:31.534Z,99242.50
2023-03-06T00:28:18.560Z,99238.22
2023-03-06T00:29:05.807Z,99243.62
2023-03-06T00:29:56.892Z,99234.00
2023-03-06T00:30:44.801Z,99242.25
2023-03-06T00:31:31.849Z,99238.81
2023-03-06T00:32:18.871Z,99233.09
2023-03-06T00:33:06.049Z,99242.06
2023-03-06T00:33:53.098Z,99236.31
2023-03-06T00:34:40.165Z,99235.62
2023-03-06T00:35:27.219Z,99239.13
2023-03-06T00:36:14.241Z,99240.25
2023-03-06T00:37:01.297Z,99233.78
2023-03-06T00:37:48.565Z,99236.81
2023-03-06T00:38:37.440Z,99231.22
2023-03-06T00:39:24.667Z,99234.16
2023-03-06T00:40:14.955Z,99233.50
2023-03-06T00:41:12.494Z,99228.25
2023-03-06T00:41:59.516Z,99233.28
2023-03-06T00:42:46.969Z,99236.16
2023-03-06T00:43:33.966Z,99230.38
2023-03-06T00:44:21.046Z,99231.91
2023-03-06T00:45:09.254Z,99227.62
2023-03-06T00:45:56.366Z,99234.88
2023-03-06T00:46:43.604Z,99232.72
2023-03-06T00:47:30.594Z,99232.50
2023-03-06T00:48:17.597Z,99237.81
2023-03-06T00:49:04.614Z,99237.00
2023-03-06T00:49:51.709Z,99237.44
2023-03-06T00:50:38.710Z,99236.13
2023-03-06T00:51:25.804Z,99237.50
2023-03-06T00:52:13.677Z,99229.50
2023-03-06T00:53:00.698Z,99233.69
2023-03-06T00:53:48.318Z,99239.94
2023-03-06T00:54:35.334Z,99235.53
2023-03-06T00:55:22.410Z,99227.94
2023-03-06T00:56:09.491Z,99231.44
2023-03-06T00:56:56.644Z,99229.06
2023-03-06T00:57:43.703Z,99229.22
2023-03-06T00:58:30.642Z,99227.94
2023-03-06T00:59:17.651Z,99225.19
2023-03-06T01:00:06.128Z,99227.00
2023-03-06T01:00:53.677Z,99226.56
2023-03-06T01:01:40.794Z,99220.91
2023-03-06T01:02:28.041Z,99223.81
2023-03-06T01:03:15.108Z,99228.12
2023-03-06T01:04:02.197Z,99223.34
2023-03-06T01:04:49.207Z,99218.56
2023-03-06T01:05:37.868Z,99215.03
2023-03-06T01:06:25.040Z,99220.78
2023-03-06T01:07:12.148Z,99216.41
2023-03-06T01:07:59.196Z,99222.87
2023-03-06T01:08:46.426Z,99213.75
2023-03-06T01:09:33.356Z,99216.97
2023-03-06T01:10:20.738Z,99218.00
2023-03-06T01:11:07.673Z,99209.66
2023-03-06T01:11:54.804Z,99201.66
2023-03-06T01:12:41.846Z,99215.03
2023-03-06T01:13:29.052Z,99215.56
2023-03-06T01:14:16.072Z,99206.72
2023-03-06T01:15:03.569Z,99208.28
2023-03-06T01:15:50.624Z,99214.13
2023-03-06T01:16:37.611Z,99207.25
2023-03-06T01:17:24.655Z,99206.75
2023-03-06T01:18:11.729Z,99203.31
2023-03-06T01:18:58.983Z,99208.72
2023-03-06T01:19:46.094Z,99199.72
2023-03-06T01:20:33.111Z,99198.22
2023-03-06T01:21:20.341Z,99191.13
2023-03-06T01:22:07.366Z,99207.56
2023-03-06T01:22:55.807Z,99201.19
2023-03-06T01:23:43.256Z,99195.59
2023-03-06T01:24:30.198Z,99198.44
2023-03-06T01:25:17.398Z,99198.28
2023-03-06T01:26:04.791Z,99191.75
2023-03-06T01:26:52.072Z,99192.56
2023-03-06T01:27:39.091Z,99192.50
2023-03-06T01:28:26.148Z,99192.19
2023-03-06T01:29:13.149Z,99189.69
2023-03-06T01:30:00.317Z,99191.56
2023-03-06T01:30:47.329Z,99194.63
2023-03-06T01:31:34.419Z,99186.69
2023-03-06T01:32:22.265Z,99189.28
2023-03-06T01:33:09.380Z,99186.78
2023-03-06T01:33:56.319Z,99185.78
2023-03-06T01:34:43.357Z,99181.00
2023-03-06T01:35:30.353Z,99182.44
2023-03-06T01:36:17.433Z,99185.03
2023-03-06T01:37:04.412Z,99196.62
2023-03-06T01:37:51.453Z,99189.00
2023-03-06T01:38:38.887Z,99186.00
2023-03-06T01:39:25.918Z,99181.12
2023-03-06T01:40:13.614Z,99181.97
2023-03-06T01:41:01.681Z,99186.31
2023-03-06T01:41:48.691Z,99190.53
2023-03-06T01:42:35.748Z,99187.06
2023-03-06T01:43:28.167Z,99180.31
2023-03-06T01:44:15.459Z,99180.78
2023-03-06T01:45:13.201Z,99181.38
2023-03-06T01:46:39.074Z,99186.31
2023-03-06T01:47:26.205Z,99178.22
2023-03-06T01:48:13.211Z,99184.63
2023-03-06T01:49:13.680Z,99173.97
2023-03-06T01:50:04.058Z,99179.84
2023-03-06T01:50:51.765Z,99174.12
2023-03-06T01:51:51.798Z,99182.44
2023-03-06T01:52:58.897Z,99175.84
2023-03-06T01:53:46.643Z,99177.31
2023-03-06T01:54:37.934Z,99181.28
2023-03-06T01:55:33.901Z,99179.16
2023-03-06T01:56:21.276Z,99168.78
2023-03-06T01:57:15.484Z,99177.28
2023-03-06T01:58:06.169Z,99169.59
2023-03-06T01:58:52.884Z,99166.66
2023-03-06T01:59:41.177Z,99176.91
2023-03-06T02:00:29.252Z,99172.34
2023-03-06T02:01:16.629Z,99174.12
2023-03-06T02:02:04.601Z,99171.25
2023-03-06T02:02:57.679Z,99166.72
2023-03-06T02:03:47.548Z,99169.19
2023-03-06T02:04:35.857Z,99170.56
2023-03-06T02:05:22.972Z,99167.81
2023-03-06T02:06:10.018Z,99172.16
2023-03-06T02:07:02.274Z,99171.94
2023-03-06T02:07:50.876Z,99174.62
2023-03-06T02:08:37.829Z,99175.56
2023-03-06T02:09:26.322Z,99179.59
2023-03-06T02:10:13.606Z,99176.78
2023-03-06T02:11:17.325Z,99172.50
2023-03-06T02:12:12.243Z,99175.56
2023-03-06T02:12:59.353Z,99168.22
2023-03-06T02:13:46.974Z,99164.25
2023-03-06T02:14:33.998Z,99164.41
2023-03-06T02:15:23.039Z,99160.38
2023-03-06T02:16:11.120Z,99169.47
2023-03-06T02:16:58.235Z,99167.88
2023-03-06T02:17:46.622Z,99160.22
2023-03-06T02:18:34.680Z,99160.19
2023-03-06T02:19:33.592Z,99162.06
2023-03-06T02:20:32.101Z,99161.28
2023-03-06T02:21:24.135Z,99161.00
2023-03-06T02:22:11.255Z,99167.41
2023-03-06T02:23:11.772Z,99158.25
2023-03-06T02:24:17.369Z,99160.91
2023-03-06T02:25:30.348Z,99154.59
2023-03-06T02:26:17.543Z,99156.31
2023-03-06T02:27:06.001Z,99158.44
2023-03-06T02:27:53.003Z,99157.50
2023-03-06T02:28:40.312Z,99158.75
2023-03-06T02:29:29.198Z,99150.97
2023-03-06T02:30:17.606Z,99160.56
2023-03-06T02:31:04.702Z,99156.41
2023-03-06T02:31:51.823Z,99149.97
2023-03-06T02:32:38.851Z,99151.97
2023-03-06T02:33:28.900Z,99156.72
2023-03-06T02:34:15.772Z,99149.72
2023-03-06T02:35:02.772Z,99147.37
2023-03-06T02:36:07.280Z,99144.06
2023-03-06T02:37:09.043Z,99148.00
2023-03-06T02:37:58.116Z,99147.50
2023-03-06T02:38:49.372Z,99143.66
2023-03-06T02:39:41.121Z,99144.50
2023-03-06T02:40:28.435Z,99141.84
2023-03-06T02:41:16.252Z,99149.28
2023-03-06T02:42:03.282Z,99146.41
2023-03-06T02:42:56.730Z,99142.09
2023-03-06T02:43:45.986Z,99139.25
2023-03-06T02:44:34.239Z,99148.31
2023-03-06T02:45:26.295Z,99143.53
2023-03-06T02:46:13.483Z,99144.59
2023-03-06T02:47:00.734Z,99144.53
2023-03-06T02:47:47.727Z,99144.62
2023-03-06T02:48:34.960Z,99144.84
2023-03-06T02:49:21.864Z,99150.84
2023-03-06T02:50:10.284Z,99145.53
2023-03-06T02:50:57.469Z,99143.94
2023-03-06T02:51:44.877Z,99143.16
2023-03-06T02:52:31.842Z,99150.25
2023-03-06T02:53:20.723Z,99146.50
2023-03-06T02:54:07.730Z,99147.97
2023-03-06T02:54:54.715Z,99150.34
2023-03-06T02:55:41.790Z,99153.78
2023-03-06T02:56:28.714Z,99150.53
2023-03-06T02:57:15.797Z,99150.91
2023-03-06T02:58:03.830Z,99148.66
2023-03-06T02:58:50.837Z,99148.13
2023-03-06T02:59:37.886Z,99150.19
2023-03-06T03:00:25.008Z,99153.59
2023-03-06T03:01:12.077Z,99157.34
2023-03-06T03:01:59.275Z,99150.31
2023-03-06T03:02:46.203Z,99161.78
2023-03-06T03:03:33.669Z,99147.50
2023-03-06T03:04:20.754Z,99158.19
2023-03-06T03:05:08.170Z,99154.91
2023-03-06T03:05:55.187Z,99148.34
2023-03-06T03:06:42.177Z,99143.41
2023-03-06T03:07:29.120Z,99141.13
2023-03-06T03:08:16.375Z,99141.41
2023-03-06T03:09:03.511Z,99144.00
2023-03-06T03:09:50.590Z,99148.19
2023-03-06T03:10:37.592Z,99145.59
2023-03-06T03:11:24.646Z,99150.78
2023-03-06T03:12:11.591Z,99145.19
2023-03-06T03:12:58.951Z,99146.63
2023-03-06T03:13:45.910Z,99145.38
2023-03-06T03:14:33.010Z,99138.00
2023-03-06T03:15:20.001Z,99147.16
2023-03-06T03:16:09.378Z,99137.84
2023-03-06T03:16:56.426Z,99143.69
2023-03-06T03:17:43.832Z,99144.56
2023-03-06T03:18:30.920Z,99143.28
2023-03-06T03:19:17.971Z,99140.75
2023-03-06T03:20:06.997Z,99144.34
2023-03-06T03:20:54.424Z,99144.09
2023-03-06T03:21:41.815Z,99147.66
2023-03-06T03:22:28.885Z,99137.94
2023-03-06T03:23:15.835Z,99142.44
2023-03-06T03:24:02.802Z,99144.47
2023-03-06T03:24:50.165Z,99150.31
2023-03-06T03:25:37.276Z,99146.34
2023-03-06T03:26:24.238Z,99136.62
2023-03-06T03:27:11.615Z,99135.53
2023-03-06T03:27:58.634Z,99135.94
2023-03-06T03:28:45.841Z,99137.16
2023-03-06T03:29:33.062Z,99129.44
2023-03-06T03:30:20.238Z,99128.47
2023-03-06T03:31:09.035Z,99139.84
2023-03-06T03:31:56.188Z,99132.72
2023-03-06T03:32:43.449Z,99135.38
2023-03-06T03:33:30.555Z,99134.56
2023-03-06T03:34:19.167Z,99131.63
2023-03-06T03:35:08.021Z,99131.16
2023-03-06T03:35:59.203Z,99138.75
2023-03-06T03:36:47.041Z,99136.62
2023-03-06T03:37:35.124Z,99132.13
2023-03-06T03:38:22.174Z,99132.37
2023-03-06T03:39:09.299Z,99135.25
2023-03-06T03:39:57.847Z,99138.47
2023-03-06T03:40:44.905Z,99133.00
2023-03-06T03:41:34.360Z,99128.88
2023-03-06T03:42:21.391Z,99129.50
2023-03-06T03:43:08.286Z,99129.09
2023-03-06T03:43:55.342Z,99133.28
2023-03-06T03:44:42.368Z,99132.91
2023-03-06T03:45:29.321Z,99128.94
2023-03-06T03:46:16.301Z,99134.16
2023-03-06T03:47:03.339Z,99131.34
2023-03-06T03:47:50.398Z,99134.00
2023-03-06T03:48:37.354Z,99130.34
2023-03-06T03:49:24.421Z,99130.78
2023-03-06T03:50:12.047Z,99132.37
2023-03-06T03:51:08.929Z,99131.97
2023-03-06T03:51:55.980Z,99134.22
2023-03-06T03:52:42.990Z,99125.81
2023-03-06T03:53:30.091Z,99130.19
2023-03-06T03:54:17.308Z,99128.72
2023-03-06T03:55:05.385Z,99125.41
2023-03-06T03:55:52.477Z,99123.00
2023-03-06T03:56:40.950Z,99126.31
2023-03-06T03:57:27.925Z,99127.88
2023-03-06T03:58:14.795Z,99126.56
2023-03-06T03:59:01.848Z,99129.38
2023-03-06T03:59:48.936Z,99127.72
2023-03-06T04:00:35.876Z,99133.91
2023-03-06T04:01:22.978Z,99126.00
2023-03-06T04:02:09.943Z,99126.06
2023-03-06T04:02:57.084Z,99131.66
2023-03-06T04:03:44.157Z,99126.22
2023-03-06T04:04:31.318Z,99128.72
2023-03-06T04:05:18.720Z,99123.87
2023-03-06T04:06:06.002Z,99125.41
2023-03-06T04:06:52.966Z,99133.00
2023-03-06T04:07:39.917Z,99125.84
2023-03-06T04:08:27.577Z,99129.63
2023-03-06T04:09:14.634Z,99124.59
2023-03-06T04:10:01.688Z,99123.75
2023-03-06T04:10:48.681Z,99131.16
2023-03-06T04:11:35.732Z,99134.31
2023-03-06T04:12:22.737Z,99126.47
2023-03-06T04:13:10.260Z,99120.75
2023-03-06T04:13:57.625Z,99124.59
2023-03-06T04:14:44.726Z,99131.13
2023-03-06T04:15:32.437Z,99130.69
2023-03-06T04:16:19.510Z,99127.03
2023-03-06T04:17:06.504Z,99122.69
2023-03-06T04:17:53.520Z,99126.25
2023-03-06T04:18:40.605Z,99119.03
2023-03-06T04:19:28.056Z,99114.72
2023-03-06T04:20:15.193Z,99115.63
2023-03-06T04:21:02.308Z,99122.84
2023-03-06T04:21:49.414Z,99124.72
2023-03-06T04:22:36.394Z,99130.59
2023-03-06T04:23:24.564Z,99122.47
2023-03-06T04:24:11.586Z,99125.88
2023-03-06T04:24:58.505Z,99130.31
2023-03-06T04:25:46.234Z,99124.25
2023-03-06T04:26:33.365Z,99129.03
2023-03-06T04:27:20.360Z,99126.72
2023-03-06T04:28:07.699Z,99129.72
2023-03-06T04:28:56.384Z,99127.09
2023-03-06T04:29:43.569Z,99124.59
2023-03-06T04:30:30.727Z,99122.25
2023-03-06T04:31:17.748Z,99126.28
2023-03-06T04:32:05.099Z,99121.09
2023-03-06T04:32:52.148Z,99120.12
2023-03-06T04:33:39.456Z,99117.13
2023-03-06T04:34:26.489Z,99117.37
2023-03-06T04:35:13.519Z,99112.91
2023-03-06T04:36:00.455Z,99113.62
2023-03-06T04:36:47.676Z,99115.00
2023-03-06T04:37:34.788Z,99118.22
2023-03-06T04:38:21.822Z,99114.31
2023-03-06T04:39:08.866Z,99113.38
2023-03-06T04:39:55.827Z,99117.81
2023-03-06T04:40:44.814Z,99120.34
2023-03-06T04:41:32.142Z,99115.41
2023-03-06T04:42:19.438Z,99118.06
2023-03-06T04:43:06.751Z,99116.28
2023-03-06T04:43:54.004Z,99115.28
2023-03-06T04:44:40.971Z,99109.59
2023-03-06T04:45:29.155Z,99107.00
2023-03-06T04:46:16.659Z,99112.69
2023-03-06T04:47:03.679Z,99108.44
2023-03-06T04:47:50.723Z,99108.03
2023-03-06T04:48:37.823Z,99103.44
2023-03-06T04:49:24.799Z,99107.16
2023-03-06T04:50:12.538Z,99107.91
2023-03-06T04:50:59.494Z,99113.66
2023-03-06T04:51:46.478Z,99111.31
2023-03-06T04:52:33.917Z,99106.88
2023-03-06T04:53:22.017Z,99106.25
2023-03-06T04:54:09.025Z,99106.66
2023-03-06T04:54:56.168Z,99107.06
2023-03-06T04:55:43.222Z,99112.66
2023-03-06T04:56:30.890Z,99109.69
2023-03-06T04:57:18.005Z,99113.38
2023-03-06T04:58:05.040Z,99112.50
2023-03-06T04:58:52.103Z,99108.16
2023-03-06T04:59:39.330Z,99104.34
2023-03-06T05:00:36.478Z,99103.91
2023-03-06T05:01:23.512Z,99096.06
2023-03-06T05:02:10.547Z,99102.84
2023-03-06T05:03:01.803Z,99101.47
2023-03-06T05:03:50.021Z,99103.31
2023-03-06T05:04:37.068Z,99102.34
2023-03-06T05:05:24.148Z,99097.81
2023-03-06T05:06:11.197Z,99101.44
2023-03-06T05:06:58.189Z,99099.56
2023-03-06T05:07:45.493Z,99095.13
2023-03-06T05:08:32.521Z,99097.16
2023-03-06T05:09:19.459Z,99093.03
2023-03-06T05:10:07.268Z,99094.16
2023-03-06T05:10:57.063Z,99092.78
2023-03-06T05:11:43.992Z,99093.47
2023-03-06T05:12:31.195Z,99091.81
2023-03-06T05:13:18.243Z,99092.31
2023-03-06T05:14:05.256Z,99083.12
2023-03-06T05:14:52.434Z,99092.31
2023-03-06T05:15:42.356Z,99091.63
2023-03-06T05:16:29.449Z,99090.31
2023-03-06T05:17:16.419Z,99095.50
2023-03-06T05:18:03.698Z,99090.69
2023-03-06T05:18:50.881Z,99091.31
2023-03-06T05:19:38.006Z,99088.66
2023-03-06T05:20:25.184Z,99090.03
2023-03-06T05:21:12.393Z,99091.00
2023-03-06T05:21:59.485Z,99083.16
2023-03-06T05:22:46.501Z,99089.28
2023-03-06T05:23:36.998Z,99084.91
2023-03-06T05:24:24.055Z,99087.69
2023-03-06T05:25:11.500Z,99094.97
2023-03-06T05:25:58.732Z,99085.19
2023-03-06T05:26:45.698Z,99078.59
2023-03-06T05:27:32.822Z,99081.28
2023-03-06T05:28:19.927Z,99072.31
2023-03-06T05:29:07.242Z,99088.28
2023-03-06T05:29:54.879Z,99081.16
2023-03-06T05:30:41.844Z,99091.38
2023-03-06T05:31:29.130Z,99080.53
2023-03-06T05:32:17.250Z,99080.47
2023-03-06T05:33:04.458Z,99080.84
2023-03-06T05:33:51.830Z,99080.81
2023-03-06T05:34:40.043Z,99091.53
2023-03-06T05:35:27.227Z,99082.31
2023-03-06T05:36:14.685Z,99082.44
2023-03-06T05:37:02.097Z,99087.66
2023-03-06T05:37:49.145Z,99085.66
2023-03-06T05:38:36.333Z,99083.81
2023-03-06T05:39:23.428Z,99089.53
2023-03-06T05:40:11.522Z,99079.22
2023-03-06T05:40:58.559Z,99084.84
2023-03-06T05:41:45.603Z,99084.66
2023-03-06T05:42:32.569Z,99086.91
2023-03-06T05:43:20.020Z,99087.91
2023-03-06T05:44:07.287Z,99087.91
2023-03-06T05:44:54.324Z,99089.81
2023-03-06T05:45:41.423Z,99080.78
2023-03-06T05:46:28.424Z,99087.03
2023-03-06T05:47:15.436Z,99087.84
2023-03-06T05:48:02.689Z,99084.34
2023-03-06T05:48:50.634Z,99079.37
2023-03-06T05:49:38.085Z,99088.94
2023-03-06T05:50:25.216Z,99084.97
2023-03-06T05:51:12.333Z,99082.69
2023-03-06T05:51:59.412Z,99084.25
2023-03-06T05:52:46.424Z,99081.41
2023-03-06T05:53:33.714Z,99084.28
2023-03-06T05:54:21.535Z,99075.78
2023-03-06T05:55:10.574Z,99082.28
2023-03-06T05:55:59.160Z,99080.09
2023-03-06T05:56:46.186Z,99075.94
2023-03-06T05:57:33.251Z,99080.72
2023-03-06T05:58:20.318Z,99077.09
2023-03-06T05:59:07.367Z,99082.41
2023-03-06T05:59:54.496Z,99079.59
2023-03-06T06:00:41.672Z,99078.53
2023-03-06T06:01:28.789Z,99079.34
2023-03-06T06:02:16.556Z,99082.69
2023-03-06T06:03:05.033Z,99081.34
2023-03-06T06:03:52.419Z,99081.06
2023-03-06T06:04:39.483Z,99091.81
2023-03-06T06:05:26.473Z,99085.38
2023-03-06T06:06:14.849Z,99094.75
2023-03-06T06:07:01.930Z,99094.87
2023-03-06T06:07:48.989Z,99096.94
2023-03-06T06:08:36.010Z,99092.09
2023-03-06T06:09:24.242Z,99091.09
2023-03-06T06:10:12.326Z,99090.78
2023-03-06T06:10:59.354Z,99095.75
2023-03-06T06:11:46.488Z,99096.59
2023-03-06T06:12:33.784Z,99094.97
2023-03-06T06:13:20.740Z,99092.00
2023-03-06T06:14:07.696Z,99092.81
2023-03-06T06:14:54.818Z,99086.84
2023-03-06T06:15:41.940Z,99091.84
2023-03-06T06:16:28.955Z,99093.56
2023-03-06T06:17:16.969Z,99099.22
2023-03-06T06:18:04.161Z,99093.81
2023-03-06T06:18:51.147Z,99100.38
2023-03-06T06:19:38.456Z,99093.94
2023-03-06T06:21:14.799Z,99097.69
2023-03-06T06:22:04.984Z,99092.50
2023-03-06T06:22:51.994Z,99097.69
2023-03-06T06:23:38.913Z,99089.84
2023-03-06T06:24:27.289Z,99094.50
2023-03-06T06:25:14.361Z,99090.91
2023-03-06T06:26:05.684Z,99093.44
2023-03-06T06:26:54.954Z,99088.78
2023-03-06T06:27:42.074Z,99094.66
2023-03-06T06:28:29.888Z,99091.16
2023-03-06T06:29:17.042Z,99093.50
2023-03-06T06:30:05.711Z,99086.50
2023-03-06T06:30:53.127Z,99090.19
2023-03-06T06:31:40.553Z,99097.19
2023-03-06T06:32:27.741Z,99089.75
2023-03-06T06:33:14.722Z,99093.44
2023-03-06T06:34:01.674Z,99087.66
2023-03-06T06:34:48.659Z,99088.97
2023-03-06T06:35:37.427Z,99090.09
2023-03-06T06:36:24.499Z,99092.09
2023-03-06T06:37:11.960Z,99088.47
2023-03-06T06:37:59.073Z,99093.28
2023-03-06T06:38:46.760Z,99100.81
2023-03-06T06:39:34.654Z,99098.62
2023-03-06T06:40:24.521Z,99100.66
2023-03-06T06:41:38.897Z,99096.53
2023-03-06T06:42:31.990Z,99101.53
2023-03-06T06:43:22.204Z,99097.69
2023-03-06T06:44:14.666Z,99096.78
2023-03-06T06:45:01.673Z,99106.00
2023-03-06T06:45:49.623Z,99100.00
2023-03-06T06:47:20.929Z,99101.00
2023-03-06T06:47:44.805Z,99096.50
2023-03-06T06:48:31.943Z,99104.53
2023-03-06T06:49:19.042Z,99101.50
2023-03-06T06:50:06.693Z,99101.87
2023-03-06T06:51:00.332Z,99098.06
2023-03-06T06:51:47.511Z,99100.03
2023-03-06T06:52:34.703Z,99104.53
2023-03-06T06:53:21.706Z,99095.19
2023-03-06T06:54:08.981Z,99100.72
2023-03-06T06:54:56.058Z,99094.72
2023-03-06T06:55:43.308Z,99096.75
2023-03-06T06:56:30.429Z,99096.41
2023-03-06T06:57:17.673Z,99091.59
2023-03-06T06:58:04.807Z,99100.44
2023-03-06T06:59:01.352Z,99088.72
2023-03-06T06:59:57.360Z,99091.22
2023-03-06T07:00:44.478Z,99095.41
2023-03-06T07:01:31.567Z,99095.72
2023-03-06T07:02:18.791Z,99091.78
2023-03-06T07:03:05.834Z,99093.94
2023-03-06T07:03:53.056Z,99095.63
2023-03-06T07:04:52.214Z,99090.81
2023-03-06T07:05:43.523Z,99085.78
2023-03-06T07:06:30.758Z,99089.47
2023-03-06T07:07:17.844Z,99094.59
2023-03-06T07:08:04.876Z,99084.78
2023-03-06T07:08:52.168Z,99095.78
2023-03-06T07:09:40.395Z,99094.47
2023-03-06T07:10:27.356Z,99087.13
2023-03-06T07:11:17.754Z,99092.16
2023-03-06T07:12:04.889Z,99087.81
2023-03-06T07:12:51.767Z,99083.78
2023-03-06T07:13:38.853Z,99080.97
2023-03-06T07:14:25.916Z,99081.97
2023-03-06T07:15:15.274Z,99082.47
2023-03-06T07:16:02.512Z,99081.66
2023-03-06T07:16:49.495Z,99081.81
2023-03-06T07:17:36.502Z,99078.97
2023-03-06T07:18:23.393Z,99080.78
2023-03-06T07:19:10.335Z,99091.44
2023-03-06T07:19:57.373Z,99088.78
2023-03-06T07:20:44.263Z,99084.25
2023-03-06T07:21:31.250Z,99081.63
2023-03-06T07:22:18.148Z,99089.31
2023-03-06T07:23:08.614Z,99089.31
2023-03-06T07:23:57.697Z,99087.66
2023-03-06T07:24:44.647Z,99089.97
2023-03-06T07:25:31.586Z,99092.47
2023-03-06T07:26:18.482Z,99091.12
2023-03-06T07:27:05.437Z,99086.13
2023-03-06T07:27:54.591Z,99092.66
2023-03-06T07:28:52.438Z,99088.31
2023-03-06T07:29:39.698Z,99087.63
2023-03-06T07:30:26.558Z,99094.00
2023-03-06T07:31:13.528Z,99092.38
2023-03-06T07:32:00.643Z,99094.19
2023-03-06T07:32:47.650Z,99092.34
2023-03-06T07:33:34.570Z,99093.87
2023-03-06T07:34:21.493Z,99092.19
2023-03-06T07:35:19.817Z,99091.34
2023-03-06T07:36:12.744Z,99096.34
2023-03-06T07:36:59.795Z,99087.16
2023-03-06T07:37:46.779Z,99097.72
2023-03-06T07:38:33.872Z,99096.53
2023-03-06T07:39:20.809Z,99097.03
2023-03-06T07:40:09.718Z,99100.88
2023-03-06T07:40:56.551Z,99093.37
2023-03-06T07:41:43.443Z,99094.34
2023-03-06T07:42:30.318Z,99090.16
2023-03-06T07:43:19.610Z,99097.88
2023-03-06T07:44:07.654Z,99098.38
2023-03-06T07:44:54.559Z,99092.50
2023-03-06T07:45:43.478Z,99091.31
2023-03-06T07:46:30.491Z,99092.66
2023-03-06T07:47:17.396Z,99090.81
2023-03-06T07:48:05.622Z,99091.69
2023-03-06T07:48:53.412Z,99093.00
2023-03-06T07:49:40.346Z,99081.94
2023-03-06T07:50:27.341Z,99090.81
2023-03-06T07:51:16.724Z,99089.31
2023-03-06T07:52:03.799Z,99093.84
2023-03-06T07:52:51.450Z,99083.81
2023-03-06T07:53:38.400Z,99088.31
2023-03-06T07:54:25.517Z,99085.66
2023-03-06T07:55:13.042Z,99078.59
2023-03-06T07:56:00.134Z,99084.81
2023-03-06T07:56:50.704Z,99082.31
2023-03-06T07:57:38.692Z,99084.81
2023-03-06T07:58:26.442Z,99078.66
2023-03-06T07:59:13.330Z,99084.78
2023-03-06T08:00:00.259Z,99076.06
2023-03-06T08:00:47.416Z,99089.13
2023-03-06T08:01:34.363Z,99080.25
2023-03-06T08:02:23.362Z,99085.13
2023-03-06T08:03:12.046Z,99087.47
2023-03-06T08:03:59.644Z,99085.81
2023-03-06T08:04:53.681Z,99087.16
2023-03-06T08:05:40.964Z,99087.00
2023-03-06T08:06:28.598Z,99089.97
2023-03-06T08:07:15.532Z,99087.28
2023-03-06T08:08:02.442Z,99093.09
2023-03-06T08:08:50.578Z,99087.44
2023-03-06T08:09:37.444Z,99084.78
2023-03-06T08:10:24.315Z,99089.84
2023-03-06T08:11:12.890Z,99086.00
2023-03-06T08:11:59.784Z,99086.84
2023-03-06T08:12:46.724Z,99094.34
2023-03-06T08:13:35.756Z,99092.19
2023-03-06T08:14:22.796Z,99094.19
2023-03-06T08:15:11.613Z,99094.87
2023-03-06T08:16:00.001Z,99080.63
2023-03-06T08:16:47.038Z,99082.47
2023-03-06T08:17:33.926Z,99091.31
2023-03-06T08:18:20.793Z,99084.13
2023-03-06T08:19:07.898Z,99078.91
2023-03-06T08:19:54.783Z,99076.22
2023-03-06T08:20:41.670Z,99070.87
2023-03-06T08:21:29.355Z,99069.41
2023-03-06T08:22:16.257Z,99071.97
2023-03-06T08:23:03.093Z,99075.12
2023-03-06T08:23:50.818Z,99078.13
2023-03-06T08:24:38.056Z,99080.00
2023-03-06T08:25:25.857Z,99084.31
2023-03-06T08:26:15.743Z,99075.31
2023-03-06T08:27:02.754Z,99076.81
2023-03-06T08:27:49.774Z,99074.28
2023-03-06T08:28:36.653Z,99073.94
2023-03-06T08:29:23.516Z,99080.28
2023-03-06T08:30:11.062Z,99072.28
2023-03-06T08:30:58.681Z,99067.59
2023-03-06T08:31:46.612Z,99076.97
2023-03-06T08:32:38.762Z,99070.28
2023-03-06T08:33:25.831Z,99074.44
2023-03-06T08:34:15.404Z,99073.47
2023-03-06T08:35:04.086Z,99068.94
2023-03-06T08:35:51.442Z,99072.78
2023-03-06T08:36:38.805Z,99082.81
2023-03-06T08:37:25.816Z,99081.81
2023-03-06T08:38:12.701Z,99079.13
2023-03-06T08:38:59.977Z,99075.12
2023-03-06T08:39:46.897Z,99074.78
2023-03-06T08:40:34.020Z,99077.47
2023-03-06T08:41:21.615Z,99076.13
2023-03-06T08:42:10.476Z,99072.28
2023-03-06T08:42:57.897Z,99074.28
2023-03-06T08:43:44.912Z,99073.63
2023-03-06T08:44:31.842Z,99071.44
2023-03-06T08:45:18.723Z,99068.44
2023-03-06T08:46:05.751Z,99067.59
2023-03-06T08:46:54.827Z,99062.25
2023-03-06T08:47:41.733Z,99068.28
2023-03-06T08:48:28.638Z,99069.75
2023-03-06T08:49:15.608Z,99068.09
2023-03-06T08:50:02.555Z,99064.91
2023-03-06T08:50:49.654Z,99064.91
2023-03-06T08:51:36.633Z,99062.38
2023-03-06T08:52:23.509Z,99064.03
2023-03-06T08:53:10.881Z,99060.25
2023-03-06T08:53:58.290Z,99062.59
2023-03-06T08:54:45.206Z,99062.09
2023-03-06T08:55:32.050Z,99053.91
2023-03-06T08:56:20.273Z,99054.06
2023-03-06T08:57:07.206Z,99059.56
2023-03-06T08:57:54.572Z,99057.41
2023-03-06T08:58:41.409Z,99057.72
2023-03-06T08:59:28.281Z,99062.56
2023-03-06T09:00:15.605Z,99053.84
2023-03-06T09:01:05.532Z,99056.66
2023-03-06T09:01:52.601Z,99054.50
2023-03-06T09:02:40.035Z,99060.84
2023-03-06T09:03:27.082Z,99054.47
2023-03-06T09:04:14.237Z,99050.09
2023-03-06T09:05:01.635Z,99055.78
2023-03-06T09:05:48.757Z,99045.91
2023-03-06T09:06:38.760Z,99054.28
2023-03-06T09:07:25.806Z,99056.87
2023-03-06T09:08:12.761Z,99055.53
2023-03-06T09:09:00.017Z,99055.03
2023-03-06T09:09:46.974Z,99053.00
2023-03-06T09:10:34.411Z,99051.53
2023-03-06T09:11:23.029Z,99054.88
2023-03-06T09:12:09.912Z,99048.31
2023-03-06T09:12:56.935Z,99045.81
2023-03-06T09:13:44.198Z,99049.25
2023-03-06T09:14:32.995Z,99044.75
2023-03-06T09:15:21.159Z,99048.94
2023-03-06T09:16:09.799Z,99038.41
2023-03-06T09:16:56.754Z,99042.84
2023-03-06T09:17:43.790Z,99041.97
2023-03-06T09:18:30.850Z,99046.59
2023-03-06T09:19:18.034Z,99045.56
2023-03-06T09:20:10.560Z,99039.66
2023-03-06T09:20:57.600Z,99049.59
2023-03-06T09:21:44.610Z,99040.06
2023-03-06T09:22:32.321Z,99042.28
2023-03-06T09:23:19.251Z,99043.88
2023-03-06T09:24:06.421Z,99042.31
2023-03-06T09:24:54.286Z,99035.31
2023-03-06T09:25:41.197Z,99038.28